Oak Island, North Carolina
Current Conditions -  °F | °C
As of 8:15 PM on Tuesday 25 Nov 2014 (Local Time) from KSUT Reporting Station
Moderate Rain Moderate Rain  
Wind Chill: 17°   Ceiling: 300
Heat Index: 17°   Visibility: 4mi
Dew Point: 17°   Wind: 0mph
Humidity: 97%   Direction: NA
Pressure: 30.07"   Gusts: NA
Location:  33.92°N, 78.16°W
Report Text: KSUT 260115Z AUTO 00000KT 4SM RA BKN003 BKN011 OVC029 17/17 A3007 RMK AO2 P0003 T01710166
Loading
Personal Weather Stations






























Interactive Weather Map New forecast layout! Learn more

10-Day Weather Forecast

Advertisements
Track Severe Weather on mobile